• Join FlightAware (Why Join?)
  • Login
  • US Flag GB Flag 
02:33 EDT


 

Airport Tracker/Info


-or-


 

Live Flight TrackerFlight Track Log ✈ N589H ✈ 15-Jan-2014 ✈ KPIE - TKPK / SKB

Flight Track Log - Related Links

Times and Time Zones

All times are in EST time to prevent confusion due to time zone crossing. See the N589H flight status page for this flight to view local times or setup timezone preferences in your user account.

Time Position Orientation Groundspeed Altitude Reporting Facility
EST Latitude Longitude Course Direction KTS MPH feet Rate Location/Type
19:42 27.9333 -82.7000 270° West 153 176 500  Level Tampa TRACON
19:43 27.9333 -82.7167 270° West 169 194 1,700 1,620 Climbing Tampa TRACON
19:45 27.8417 -82.7056 174° South 198 228 5,300 1,740 Climbing Miami Center
19:46 27.7847 -82.6697 151° Southeast 220 253 7,500 2,100 Climbing Miami Center
19:47 27.7361 -82.6297 144° Southeast 220 253 9,600 1,920 Climbing Miami Center
19:48 27.6878 -82.5875 142° Southeast 220 253 11,400 1,620 Climbing Miami Center
19:49 27.6419 -82.5361 135° Southeast 286 329 12,900 1,560 Climbing Miami Center
19:50 27.5942 -82.4750 131° Southeast 275 316 14,600 1,740 Climbing Miami Center
19:51 27.5506 -82.4119 128° Southeast 262 302 16,400 1,560 Climbing Miami Center
19:52 27.5053 -82.3419 126° Southeast 262 302 17,800 1,800 Climbing Miami Center
19:53 27.4642 -82.2700 123° Southeast 279 321 20,000 2,100 Climbing Miami Center
19:54 27.4253 -82.2003 122° Southeast 265 305 22,000 1,440 Climbing Miami Center
19:55 27.3900 -82.1356 122° Southeast 260 299 22,900 660 Climbing Miami Center
19:56 27.3425 -82.0633 127° Southeast 279 321 23,400 600 Climbing Miami Center
19:57 27.2872 -81.9767 126° Southeast 306 352 24,200 720 Climbing Miami Center
19:58 27.2444 -81.8814 117° Southeast 329 379 24,900 360 Climbing Miami Center
19:59 27.1978 -81.7858 119° Southeast 341 392 25,000  Climbing Miami Center
20:00 27.1547 -81.6978 119° Southeast 352 405 25,000  Level Miami Center
20:01 27.1036 -81.6047 122° Southeast 352 405 25,000  Level Miami Center
20:02 27.0506 -81.5022 120° Southeast 346 398 25,000 540 Level Miami Center
20:03 27.0056 -81.4097 119° Southeast 346 398 26,100 1,440 Climbing Miami Center
20:04 26.9664 -81.3242 117° Southeast 330 380 27,900 1,800 Climbing Miami Center
20:05 26.9372 -81.2533 115° Southeast 293 337 29,800 1,560 Climbing Miami Center
20:06 26.9022 -81.1728 116° Southeast 266 306 31,100 900 Climbing Miami Center
20:07 26.8669 -81.0947 117° Southeast 272 313 31,600 480 Climbing Miami Center
20:08 26.8294 -81.0119 117° Southeast 285 328 32,100 360 Climbing Miami Center
20:09 26.7903 -80.9197 115° Southeast 305 351 32,400 300 Climbing Miami Center
20:10 26.7531 -80.8347 116° Southeast 326 375 32,700 300 Climbing Miami Center
20:11 26.7097 -80.7333 116° Southeast 351 404 33,100 360 Climbing Miami Center
20:12 26.6583 -80.6222 117° Southeast 358 412 33,500 360 Climbing Miami Center
20:13 26.6192 -80.5258 114° Southeast 368 423 33,900 360 Climbing Miami Center
20:14 26.5678 -80.4128 117° Southeast 373 429 34,300 240 Climbing Miami Center
20:15 26.5261 -80.3139 115° Southeast 373 429 34,400 180 Climbing Miami Center
20:16 26.4747 -80.1942 116° Southeast 378 435 34,700 240 Climbing Miami Center
20:17 26.4228 -80.0858 118° Southeast 386 444 34,900 180 Climbing Miami Center
20:18 26.3772 -79.9758 115° Southeast 391 450 35,100 180 Climbing Miami Center
20:19 26.3272 -79.8656 117° Southeast 391 450 35,300 180 Climbing Miami Center
20:20 26.2792 -79.7578 116° Southeast 391 450 35,500 120 Climbing Miami Center
20:21 26.2372 -79.6594 115° Southeast 391 450 35,600 180 Climbing Miami Center
20:22 26.1892 -79.5517 116° Southeast 386 444 35,900 240 Climbing Miami Center
20:23 26.1411 -79.4464 117° Southeast 386 444 36,100 180 Climbing Miami Center
20:24 26.0928 -79.3392 117° Southeast 386 444 36,300 180 Climbing Miami Center
20:25 26.0422 -79.2317 118° Southeast 386 444 36,500 180 Climbing Miami Center
20:26 25.9958 -79.1289 117° Southeast 386 444 36,700 180 Climbing Miami Center
20:27 25.9494 -79.0264 117° Southeast 381 438 36,900 120 Climbing Miami Center
20:28 25.9069 -78.9286 116° Southeast 381 438 37,000  Climbing Miami Center
20:29 25.8497 -78.8192 120° Southeast 381 438 37,000  Level Miami Center
20:30 25.8053 -78.7100 114° Southeast 381 438 37,000  Level Miami Center
20:31 25.7586 -78.6008 115° Southeast 381 438 37,000  Level Miami Center
20:32 25.7056 -78.4939 119° Southeast 381 438 37,000  Level Miami Center
20:33 25.6544 -78.3872 118° Southeast 392 451 37,000  Level Miami Center
20:34 25.6075 -78.2783 116° Southeast 387 445 37,000  Level Miami Center
20:35 25.5561 -78.1694 118° Southeast 387 445 37,000  Level Miami Center
20:36 25.5069 -78.0608 117° Southeast 387 445 37,000  Level Miami Center
20:37 25.4575 -77.9519 117° Southeast 387 445 37,000  Level Miami Center
20:38 25.4083 -77.8481 118° Southeast 387 445 37,000  Level Miami Center
20:39 25.3586 -77.7394 117° Southeast 387 445 37,000  Level Miami Center
20:40 25.3092 -77.6336 117° Southeast 387 445 37,000  Level Miami Center
20:41 25.2594 -77.5253 117° Southeast 387 445 37,000  Level Miami Center
20:42 25.2058 -77.4056 116° Southeast 387 445 37,000  Level Miami Center
20:43 25.1517 -77.2950 118° Southeast 387 445 37,000  Level Miami Center
20:44 25.0997 -77.1869 118° Southeast 392 451 37,000  Level Miami Center
20:45 25.0478 -77.0789 118° Southeast 392 451 37,000  Level Miami Center
20:46 24.9956 -76.9733 119° Southeast 392 451 37,000  Level Miami Center
20:47 24.9433 -76.8658 118° Southeast 392 451 37,000  Level Miami Center
20:48 24.8931 -76.7558 117° Southeast 392 451 37,000  Level Miami Center
20:49 24.8408 -76.6503 119° Southeast 392 451 37,000  Level Miami Center
20:50 24.7883 -76.5406 118° Southeast 392 451 37,000  Level Miami Center
20:51 24.7358 -76.4308 118° Southeast 392 451 37,000  Level Miami Center
20:52 24.6853 -76.3236 117° Southeast 392 451 37,000  Level Miami Center
20:53 24.6369 -76.2278 119° Southeast 392 451 37,000  Level Miami Center
20:54 24.5797 -76.1117 118° Southeast 392 451 37,000  Level Miami Center
20:55 24.5269 -76.0000 117° Southeast 398 458 37,000  Level Miami Center
20:56 24.4742 -75.8931 118° Southeast 403 464 37,000  Level Miami Center
20:57 24.4211 -75.7839 118° Southeast 403 464 37,000  Level Miami Center
20:58 24.3700 -75.6794 118° Southeast 398 458 37,000  Level Miami Center
20:59 24.3169 -75.5706 118° Southeast 398 458 37,000  Level Miami Center
21:00 24.2658 -75.4661 118° Southeast 398 458 37,000  Level Miami Center
21:01 24.2125 -75.3572 118° Southeast 398 458 37,000  Level Miami Center
21:02 24.1592 -75.2486 118° Southeast 398 458 37,000  Level Miami Center
21:03 24.1078 -75.1447 118° Southeast 398 458 37,000  Level Miami Center
21:04 24.0564 -75.0383 118° Southeast 398 458 37,000  Level Miami Center
21:05 24.0008 -74.9322 120° Southeast 398 458 37,000  Level Miami Center
21:06 23.9492 -74.8239 118° Southeast 398 458 37,000  Level Miami Center
21:07 23.8956 -74.7181 119° Southeast 398 458 37,000  Level Miami Center
21:08 23.8417 -74.6100 119° Southeast 398 458 37,000  Level Miami Center
21:09 23.7878 -74.5042 119° Southeast 398 458 37,000  Level Miami Center
21:10 23.7317 -74.3986 120° Southeast 398 458 37,000  Level Miami Center
21:11 23.6819 -74.2928 117° Southeast 398 458 37,000  Level Miami Center
21:12 23.6386 -74.2075 119° Southeast 398 458 37,000  Level Miami Center
21:13 23.5800 -74.0931 119° Southeast 398 458 37,000  Level Miami Center
21:14 23.5239 -73.9881 120° Southeast 398 458 37,000  Level Miami Center
21:15 23.4736 -73.8828 117° Southeast 398 458 37,000  Level Miami Center
21:16 23.4194 -73.7775 119° Southeast 398 458 37,000  Level Miami Center
21:17 23.3692 -73.6747 118° Southeast 392 451 37,000  Level Miami Center
21:18 23.3147 -73.5697 119° Southeast 392 451 37,000  Level Miami Center
21:19 23.2558 -73.4650 121° Southeast 397 457 37,000  Level Miami Center
21:20 23.2056 -73.3600 118° Southeast 397 457 37,000  Level Miami Center
21:21 23.1489 -73.2578 121° Southeast 390 449 37,000  Level Miami Center
21:22 23.0981 -73.1508 117° Southeast 390 449 37,000  Level Miami Center
21:23 23.0433 -73.0464 120° Southeast 390 449 37,000  Level Miami Center
21:24 22.9947 -72.9417 117° Southeast 384 442 37,000  Level Miami Center
21:25 22.9397 -72.8397 120° Southeast 389 448 37,000  Level Miami Center
21:26 22.8847 -72.7356 120° Southeast 394 453 37,000  Level Miami Center
21:27 22.8317 -72.6292 118° Southeast 389 448 37,000  Level Miami Center
21:28 22.7744 -72.5275 121° Southeast 389 448 37,000  Level Miami Center
21:29 22.7214 -72.4233 119° Southeast 394 453 37,000  Level Miami Center
21:30 22.6700 -72.3150 117° Southeast 394 453 37,000  Level Miami Center
21:31 22.6128 -72.2111 121° Southeast 394 453 37,000  Level Miami Center
21:32 22.5594 -72.1075 119° Southeast 394 453 37,000  Level Miami Center
21:33 22.5039 -72.0039 120° Southeast 394 453 37,000  Level Miami Center
21:34 22.4483 -71.9028 121° Southeast 394 453 37,000  Level Miami Center
21:35 22.3928 -71.7972 120° Southeast 394 453 37,000  Level Miami Center
21:36 22.3372 -71.6983 121° Southeast 394 453 37,000  Level Miami Center
21:37 22.2858 -71.5972 119° Southeast 394 453 37,000  Level Miami Center
21:38 22.2319 -71.4917 119° Southeast 394 453 37,000  Level Miami Center
21:39 22.1783 -71.3908 120° Southeast 389 448 37,000  Level Miami Center
21:40 22.1247 -71.2900 120° Southeast 389 448 37,000  Level Miami Center
21:41 22.0642 -71.1786 120° Southeast 389 448 37,000  Level Miami Center
21:42 22.0103 -71.0778 120° Southeast 389 448 37,000  Level Miami Center
21:43 21.9564 -70.9797 121° Southeast 389 448 37,000  Level Miami Center
21:44 21.9025 -70.8769 119° Southeast 389 448 37,000  Level Miami Center
21:45 21.8506 -70.7811 120° Southeast 389 448 37,000  Level Miami Center
21:46 21.7967 -70.6808 120° Southeast 384 442 37,000  Level Miami Center
21:47 21.7403 -70.5786 121° Southeast 384 442 37,000  Level Miami Center
21:48 21.6883 -70.4806 120° Southeast 384 442 37,000  Level Miami Center
21:49 21.6342 -70.3828 121° Southeast 384 442 37,000  Level Miami Center
21:50 21.5819 -70.2828 119° Southeast 384 442 37,000  Level Miami Center
21:51 21.5253 -70.1831 121° Southeast 384 442 37,000  Level Miami Center
21:52 21.4711 -70.0856 121° Southeast 384 442 37,000  Level Miami Center
21:53 21.4164 -69.9836 120° Southeast 389 448 37,000  Level Miami Center
21:54 21.3578 -69.8819 122° Southeast 390 449 37,000  Level Miami Center
21:55 21.3072 -69.7825 119° Southeast 390 449 37,000  Level Miami Center
21:56 21.2528 -69.6831 120° Southeast 390 449 37,000  Level Miami Center
21:57 21.2022 -69.5836 119° Southeast 390 449 37,000  Level Miami Center
21:58 21.1411 -69.4847 124° Southeast 390 449 37,000  Level Miami Center
21:59 21.0861 -69.3811 120° Southeast 390 449 37,000  Level Miami Center
22:00 21.0356 -69.2797 118° Southeast 390 449 37,000  Level Miami Center
22:01 20.9764 -69.1808 123° Southeast 390 449 37,000  Level Miami Center
22:02 20.9211 -69.0775 120° Southeast 390 449 37,000  Level Miami Center
22:03 20.8775 -68.9958 120° Southeast 390 449 37,000  Level Miami Center
22:04 20.8178 -68.8864 120° Southeast 390 449 37,000  Level Miami Center
22:05 20.7606 -68.7856 121° Southeast 390 449 37,000  Level Miami Center
22:06 20.7033 -68.6872 122° Southeast 390 449 37,000  Level Miami Center
22:07 20.6478 -68.5844 120° Southeast 390 449 37,000  Level Miami Center
22:08 20.5903 -68.4839 121° Southeast 390 449 37,000  Level Miami Center
22:09 20.5350 -68.3814 120° Southeast 390 449 37,000  Level Miami Center
22:10 20.4772 -68.2811 122° Southeast 390 449 37,000  Level Miami Center
22:11 20.4197 -68.1808 121° Southeast 390 449 37,000 -240 Level Miami Center
22:12 20.3644 -68.0831 121° Southeast 390 449 36,600 -480 Descending Miami Center
22:13 20.3064 -67.9764 120° Southeast 395 455 36,100 -540 Descending Miami Center
22:14 20.2461 -67.8722 122° Southeast 407 468 35,600 -540 Descending Miami Center
22:15 20.1939 -67.7611 117° Southeast 413 475 35,100 -360 Descending Miami Center
22:16 20.1167 -67.6667 131° Southeast 410 472 35,000 -60 Descending San Juan Center
22:17 20.0500 -67.5667 125° Southeast 400 460 35,000  Level San Juan Center
22:18 20.0000 -67.4500 115° Southeast 400 460 35,000  Level San Juan Center
22:19 19.9333 -67.3500 125° Southeast 390 449 35,000  Level San Juan Center
22:20 19.8667 -67.2333 121° Southeast 400 460 35,000  Level San Juan Center
22:23 19.7000 -66.9500 120° Southeast 390 449 35,000  Level San Juan Center
22:24 19.6500 -66.8500 118° Southeast 390 449 35,000  Level San Juan Center
22:25 19.5833 -66.7500 125° Southeast 390 449 35,000  Level San Juan Center
22:26 19.5333 -66.6500 118° Southeast 390 449 35,000  Level San Juan Center
22:27 19.4833 -66.5500 118° Southeast 390 449 35,000  Level San Juan Center
22:28 19.4167 -66.4500 125° Southeast 400 460 35,000  Level San Juan Center
22:29 19.4572 -66.4761 120° Southeast  Level FlightAware Approximate
22:29 19.3667 -66.3500 118° Southeast 390 449 35,000  Level San Juan Center
22:30 19.3000 -66.2500 125° Southeast 400 460 35,000  Level San Juan Center
22:31 19.2500 -66.1500 118° Southeast 400 460 35,000  Level San Juan Center
22:32 19.1833 -66.0500 125° Southeast 400 460 35,000  Level San Juan Center
22:33 19.1333 -65.9500 118° Southeast 390 449 35,000  Level San Juan Center
22:34 19.0667 -65.8500 125° Southeast 390 449 35,000 -180 Level San Juan Center
22:35 19.0167 -65.7500 118° Southeast 400 460 34,700 -420 Descending San Juan Center
22:36 18.9500 -65.6500 125° Southeast 410 472 34,200 -600 Descending San Juan Center
22:37 18.8833 -65.5500 125° Southeast 420 483 33,600 -600 Descending San Juan Center
22:38 18.8333 -65.4500 118° Southeast 420 483 33,100 -600 Descending San Juan Center
22:39 18.7667 -65.3333 121° Southeast 420 483 32,500 -780 Descending San Juan Center
22:40 18.7000 -65.2333 125° Southeast 420 483 31,600 -1,200 Descending San Juan Center
22:41 18.6500 -65.1333 118° Southeast 430 495 30,100 -1,560 Descending San Juan Center
22:42 18.5833 -65.0167 121° Southeast 420 483 28,500 -1,620 Descending San Juan Center
22:43 18.5167 -64.9167 125° Southeast 430 495 26,900 -1,560 Descending San Juan Center
22:44 18.4500 -64.8000 121° Southeast 420 483 25,400 -1,500 Descending San Juan Center
22:45 18.4000 -64.7167 122° Southeast 400 460 23,900 -1,500 Descending San Juan Center
22:46 18.3333 -64.6167 125° Southeast 390 449 22,400 -1,560 Descending San Juan Center
22:47 18.2667 -64.5167 125° Southeast 380 437 20,800 -1,560 Descending San Juan Center
22:48 18.2167 -64.4167 118° Southeast 370 426 19,300 -1,500 Descending San Juan Center
22:49 18.1667 -64.3333 122° Southeast 360 414 17,800 -1,500 Descending San Juan Center
22:50 18.1167 -64.2500 122° Southeast 350 403 16,400 -1,500 Descending San Juan Center
22:51 18.0667 -64.1667 122° Southeast 340 391 14,800 -1,380 Descending San Juan Center
22:52 18.0167 -64.0833 122° Southeast 330 380 13,700 -1,080 Descending San Juan Center
22:53 17.9667 -64.0000 122° Southeast 320 368 12,700 -960 Descending San Juan Center
22:54 17.9167 -63.9333 128° Southeast 320 368 11,800 -900 Descending San Juan Center
22:55 17.8667 -63.8500 122° Southeast 320 368 11,000 -840 Descending San Juan Center
22:56 17.8167 -63.7667 122° Southeast 310 357 10,200 -780 Descending San Juan Center
22:57 17.7667 -63.7000 128° Southeast 300 345 9,500 -780 Descending San Juan Center
22:58 17.7333 -63.6167 113° Southeast 290 334 8,700 -780 Descending San Juan Center
22:59 17.6833 -63.5500 128° Southeast 280 322 8,000 -780 Descending San Juan Center
23:00 17.6500 -63.5000 125° Southeast 260 299 7,200 -720 Descending San Juan Center
23:01 17.6000 -63.4333 128° Southeast 260 299 6,600 -600 Descending San Juan Center
23:02 17.5667 -63.3667 118° Southeast 260 299 6,000 -300 Descending San Juan Center
23:03 17.5333 -63.3000 118° Southeast 270 311 6,000  Level San Juan Center
23:04 17.5000 -63.2333 118° Southeast 260 299 6,000  Level San Juan Center
23:05 17.4500 -63.1667 128° Southeast 270 311 6,000  Level San Juan Center
23:06 17.4167 -63.1000 118° Southeast 270 311 6,000  Level San Juan Center
23:07 17.3667 -63.0333 128° Southeast 240 276 6,000  Level San Juan Center
23:08 17.3333 -62.9833 125° Southeast 240 276 6,000  Level San Juan Center
23:11 17.3189 -62.8655 98° East  Level FlightAware Approximate
23:18 17.3112 -62.7187 North  Level Estimated
23:19 17.3112 -62.7187 North  Level Estimated
23:20 17.3112 -62.7187 North  Level Estimated
23:21 17.3112 -62.7187 North  Level Estimated
23:22 17.3112 -62.7187 North  Level Estimated
23:23 17.3112 -62.7187 North  Level Estimated
23:24 17.3112 -62.7187 North  Level Estimated
23:25 17.3112 -62.7187 North  Level Estimated
23:26 17.3112 -62.7187 North  Level Estimated
23:27 17.3112 -62.7187 North  Level Estimated
23:28 17.3112 -62.7187 North  Level Estimated
23:29 17.3112 -62.7187 North  Level Estimated
23:30 17.3112 -62.7187 North  Level Estimated
23:31 17.3112 -62.7187 North  Level Estimated